sensor_id;sensor_type;location;lat;lon;timestamp;P1;durP1;ratioP1;P2;durP2;ratioP2
22439;SDS011;11387;51.612;7.210;2023-01-25T00:01:49;62.78;;;33.72;;
22439;SDS011;11387;51.612;7.210;2023-01-25T00:04:20;61.55;;;34.28;;
22439;SDS011;11387;51.612;7.210;2023-01-25T00:06:49;46.83;;;27.17;;
22439;SDS011;11387;51.612;7.210;2023-01-25T00:09:18;49.95;;;28.27;;
22439;SDS011;11387;51.612;7.210;2023-01-25T00:11:47;46.05;;;27.23;;
22439;SDS011;11387;51.612;7.210;2023-01-25T00:14:15;47.20;;;27.25;;
22439;SDS011;11387;51.612;7.210;2023-01-25T00:16:44;51.55;;;27.58;;
22439;SDS011;11387;51.612;7.210;2023-01-25T00:19:12;50.92;;;28.20;;
22439;SDS011;11387;51.612;7.210;2023-01-25T00:21:42;64.22;;;33.28;;
22439;SDS011;11387;51.612;7.210;2023-01-25T00:24:11;67.00;;;34.75;;
22439;SDS011;11387;51.612;7.210;2023-01-25T00:26:40;59.97;;;31.77;;
22439;SDS011;11387;51.612;7.210;2023-01-25T00:29:11;72.43;;;35.42;;
22439;SDS011;11387;51.612;7.210;2023-01-25T00:31:44;60.30;;;31.58;;
22439;SDS011;11387;51.612;7.210;2023-01-25T00:37:17;62.92;;;32.47;;
22439;SDS011;11387;51.612;7.210;2023-01-25T00:39:48;69.68;;;35.08;;
22439;SDS011;11387;51.612;7.210;2023-01-25T00:42:17;72.45;;;37.10;;
22439;SDS011;11387;51.612;7.210;2023-01-25T00:44:46;80.78;;;38.95;;
22439;SDS011;11387;51.612;7.210;2023-01-25T00:47:15;84.57;;;41.38;;
22439;SDS011;11387;51.612;7.210;2023-01-25T00:49:44;66.88;;;34.92;;
22439;SDS011;11387;51.612;7.210;2023-01-25T00:52:14;69.20;;;37.35;;
22439;SDS011;11387;51.612;7.210;2023-01-25T00:54:44;68.95;;;34.65;;
22439;SDS011;11387;51.612;7.210;2023-01-25T00:57:12;56.00;;;29.45;;
22439;SDS011;11387;51.612;7.210;2023-01-25T00:59:41;43.80;;;24.33;;
22439;SDS011;11387;51.612;7.210;2023-01-25T01:02:10;44.75;;;25.63;;
22439;SDS011;11387;51.612;7.210;2023-01-25T01:04:39;40.75;;;22.95;;
22439;SDS011;11387;51.612;7.210;2023-01-25T01:07:09;67.15;;;33.85;;
22439;SDS011;11387;51.612;7.210;2023-01-25T01:09:40;66.28;;;33.38;;
22439;SDS011;11387;51.612;7.210;2023-01-25T01:12:09;81.78;;;40.67;;
22439;SDS011;11387;51.612;7.210;2023-01-25T01:14:38;101.85;;;47.35;;
22439;SDS011;11387;51.612;7.210;2023-01-25T01:17:06;92.20;;;44.53;;
22439;SDS011;11387;51.612;7.210;2023-01-25T01:19:34;94.15;;;45.53;;
22439;SDS011;11387;51.612;7.210;2023-01-25T01:22:03;87.72;;;42.33;;
22439;SDS011;11387;51.612;7.210;2023-01-25T01:24:31;81.40;;;40.03;;
22439;SDS011;11387;51.612;7.210;2023-01-25T01:27:01;86.00;;;40.67;;
22439;SDS011;11387;51.612;7.210;2023-01-25T01:29:29;86.40;;;40.63;;
22439;SDS011;11387;51.612;7.210;2023-01-25T01:31:58;83.03;;;41.60;;
22439;SDS011;11387;51.612;7.210;2023-01-25T01:34:26;57.03;;;30.70;;
22439;SDS011;11387;51.612;7.210;2023-01-25T01:36:55;52.55;;;28.20;;
22439;SDS011;11387;51.612;7.210;2023-01-25T01:39:23;62.95;;;30.38;;
22439;SDS011;11387;51.612;7.210;2023-01-25T01:41:52;47.80;;;26.60;;
22439;SDS011;11387;51.612;7.210;2023-01-25T01:47:17;43.65;;;23.85;;
22439;SDS011;11387;51.612;7.210;2023-01-25T01:49:50;41.35;;;23.08;;
22439;SDS011;11387;51.612;7.210;2023-01-25T01:52:22;42.60;;;24.20;;
22439;SDS011;11387;51.612;7.210;2023-01-25T01:54:55;37.30;;;21.20;;
22439;SDS011;11387;51.612;7.210;2023-01-25T01:57:29;41.22;;;21.63;;
22439;SDS011;11387;51.612;7.210;2023-01-25T02:00:04;39.78;;;22.33;;
22439;SDS011;11387;51.612;7.210;2023-01-25T02:02:35;36.70;;;23.08;;
22439;SDS011;11387;51.612;7.210;2023-01-25T02:05:05;34.22;;;20.67;;
22439;SDS011;11387;51.612;7.210;2023-01-25T02:07:38;37.28;;;22.15;;
22439;SDS011;11387;51.612;7.210;2023-01-25T02:10:08;36.75;;;22.40;;
22439;SDS011;11387;51.612;7.210;2023-01-25T02:12:39;45.10;;;26.15;;
22439;SDS011;11387;51.612;7.210;2023-01-25T02:15:10;40.42;;;24.00;;
22439;SDS011;11387;51.612;7.210;2023-01-25T02:17:39;43.60;;;24.65;;
22439;SDS011;11387;51.612;7.210;2023-01-25T02:20:09;35.75;;;21.23;;
22439;SDS011;11387;51.612;7.210;2023-01-25T02:22:46;36.40;;;21.17;;
22439;SDS011;11387;51.612;7.210;2023-01-25T02:25:24;36.90;;;22.63;;
22439;SDS011;11387;51.612;7.210;2023-01-25T02:27:53;35.33;;;20.65;;
22439;SDS011;11387;51.612;7.210;2023-01-25T02:30:25;29.60;;;18.60;;
22439;SDS011;11387;51.612;7.210;2023-01-25T02:32:54;31.13;;;18.95;;
22439;SDS011;11387;51.612;7.210;2023-01-25T02:35:23;31.13;;;19.63;;
22439;SDS011;11387;51.612;7.210;2023-01-25T02:38:03;38.38;;;20.88;;
22439;SDS011;11387;51.612;7.210;2023-01-25T02:40:37;35.03;;;20.33;;
22439;SDS011;11387;51.612;7.210;2023-01-25T02:43:11;36.03;;;22.02;;
22439;SDS011;11387;51.612;7.210;2023-01-25T02:45:40;32.35;;;20.38;;
22439;SDS011;11387;51.612;7.210;2023-01-25T02:48:11;33.15;;;19.35;;
22439;SDS011;11387;51.612;7.210;2023-01-25T02:50:39;29.60;;;18.60;;
22439;SDS011;11387;51.612;7.210;2023-01-25T02:53:08;41.03;;;22.15;;
22439;SDS011;11387;51.612;7.210;2023-01-25T02:55:37;38.67;;;21.90;;
22439;SDS011;11387;51.612;7.210;2023-01-25T02:58:06;38.85;;;23.65;;
22439;SDS011;11387;51.612;7.210;2023-01-25T03:00:34;40.25;;;24.10;;
22439;SDS011;11387;51.612;7.210;2023-01-25T03:03:03;39.58;;;23.77;;
22439;SDS011;11387;51.612;7.210;2023-01-25T03:05:31;42.17;;;24.75;;
22439;SDS011;11387;51.612;7.210;2023-01-25T03:08:00;37.42;;;22.55;;
22439;SDS011;11387;51.612;7.210;2023-01-25T03:10:28;40.30;;;23.70;;
22439;SDS011;11387;51.612;7.210;2023-01-25T03:12:59;48.67;;;26.75;;
22439;SDS011;11387;51.612;7.210;2023-01-25T03:15:27;44.35;;;25.15;;
22439;SDS011;11387;51.612;7.210;2023-01-25T03:17:56;43.95;;;24.88;;
22439;SDS011;11387;51.612;7.210;2023-01-25T03:20:25;45.40;;;24.30;;
22439;SDS011;11387;51.612;7.210;2023-01-25T03:22:53;47.25;;;24.35;;
22439;SDS011;11387;51.612;7.210;2023-01-25T03:25:22;36.55;;;22.00;;
22439;SDS011;11387;51.612;7.210;2023-01-25T03:27:50;30.75;;;20.23;;
22439;SDS011;11387;51.612;7.210;2023-01-25T03:30:21;33.95;;;21.00;;
22439;SDS011;11387;51.612;7.210;2023-01-25T03:32:50;34.10;;;20.27;;
22439;SDS011;11387;51.612;7.210;2023-01-25T03:35:18;39.70;;;21.67;;
22439;SDS011;11387;51.612;7.210;2023-01-25T03:37:47;39.35;;;22.90;;
22439;SDS011;11387;51.612;7.210;2023-01-25T03:40:16;35.30;;;21.58;;
22439;SDS011;11387;51.612;7.210;2023-01-25T03:42:45;41.22;;;23.42;;
22439;SDS011;11387;51.612;7.210;2023-01-25T03:45:13;32.97;;;20.83;;
22439;SDS011;11387;51.612;7.210;2023-01-25T03:47:43;40.28;;;23.67;;
22439;SDS011;11387;51.612;7.210;2023-01-25T03:50:12;32.17;;;19.63;;
22439;SDS011;11387;51.612;7.210;2023-01-25T03:52:40;38.15;;;21.52;;
22439;SDS011;11387;51.612;7.210;2023-01-25T03:55:11;37.45;;;23.33;;
22439;SDS011;11387;51.612;7.210;2023-01-25T03:57:40;36.22;;;22.27;;
22439;SDS011;11387;51.612;7.210;2023-01-25T04:00:09;38.90;;;23.70;;
22439;SDS011;11387;51.612;7.210;2023-01-25T04:02:39;35.78;;;21.50;;
22439;SDS011;11387;51.612;7.210;2023-01-25T04:05:08;30.02;;;18.95;;
22439;SDS011;11387;51.612;7.210;2023-01-25T04:07:37;35.38;;;21.15;;
22439;SDS011;11387;51.612;7.210;2023-01-25T04:10:06;33.42;;;21.52;;
22439;SDS011;11387;51.612;7.210;2023-01-25T04:12:36;32.50;;;20.13;;
22439;SDS011;11387;51.612;7.210;2023-01-25T04:15:05;31.15;;;21.00;;
22439;SDS011;11387;51.612;7.210;2023-01-25T04:17:35;34.17;;;22.10;;
22439;SDS011;11387;51.612;7.210;2023-01-25T04:20:04;36.25;;;22.63;;
22439;SDS011;11387;51.612;7.210;2023-01-25T04:22:35;38.10;;;22.70;;
22439;SDS011;11387;51.612;7.210;2023-01-25T04:25:04;33.58;;;22.05;;
22439;SDS011;11387;51.612;7.210;2023-01-25T04:27:34;38.40;;;21.83;;
22439;SDS011;11387;51.612;7.210;2023-01-25T04:30:03;36.60;;;23.75;;
22439;SDS011;11387;51.612;7.210;2023-01-25T04:32:33;38.40;;;24.63;;
22439;SDS011;11387;51.612;7.210;2023-01-25T04:35:02;35.45;;;22.55;;
22439;SDS011;11387;51.612;7.210;2023-01-25T04:37:34;39.88;;;24.80;;
22439;SDS011;11387;51.612;7.210;2023-01-25T04:40:03;37.40;;;23.45;;
22439;SDS011;11387;51.612;7.210;2023-01-25T04:42:33;31.73;;;21.30;;
22439;SDS011;11387;51.612;7.210;2023-01-25T04:45:02;37.97;;;23.10;;
22439;SDS011;11387;51.612;7.210;2023-01-25T04:47:31;38.20;;;23.02;;
22439;SDS011;11387;51.612;7.210;2023-01-25T04:50:00;33.33;;;22.85;;
22439;SDS011;11387;51.612;7.210;2023-01-25T04:52:28;35.80;;;24.75;;
22439;SDS011;11387;51.612;7.210;2023-01-25T04:54:58;37.20;;;24.00;;
22439;SDS011;11387;51.612;7.210;2023-01-25T04:57:26;35.38;;;22.45;;
22439;SDS011;11387;51.612;7.210;2023-01-25T04:59:55;38.00;;;22.35;;
22439;SDS011;11387;51.612;7.210;2023-01-25T05:02:23;36.35;;;23.27;;
22439;SDS011;11387;51.612;7.210;2023-01-25T05:04:53;37.88;;;23.42;;
22439;SDS011;11387;51.612;7.210;2023-01-25T05:07:22;34.75;;;21.73;;
22439;SDS011;11387;51.612;7.210;2023-01-25T05:09:50;42.25;;;24.50;;
22439;SDS011;11387;51.612;7.210;2023-01-25T05:12:20;37.85;;;25.23;;
22439;SDS011;11387;51.612;7.210;2023-01-25T05:14:49;51.95;;;31.92;;
22439;SDS011;11387;51.612;7.210;2023-01-25T05:17:18;37.70;;;24.40;;
22439;SDS011;11387;51.612;7.210;2023-01-25T05:19:46;41.03;;;24.92;;
22439;SDS011;11387;51.612;7.210;2023-01-25T05:22:22;37.92;;;23.92;;
22439;SDS011;11387;51.612;7.210;2023-01-25T05:24:51;39.80;;;25.35;;
22439;SDS011;11387;51.612;7.210;2023-01-25T05:27:21;40.70;;;23.85;;
22439;SDS011;11387;51.612;7.210;2023-01-25T05:29:49;39.63;;;24.30;;
22439;SDS011;11387;51.612;7.210;2023-01-25T05:32:20;35.10;;;22.60;;
22439;SDS011;11387;51.612;7.210;2023-01-25T05:34:51;38.40;;;25.52;;
22439;SDS011;11387;51.612;7.210;2023-01-25T05:37:20;37.05;;;23.75;;
22439;SDS011;11387;51.612;7.210;2023-01-25T05:39:48;38.10;;;23.13;;
22439;SDS011;11387;51.612;7.210;2023-01-25T05:42:17;41.58;;;24.98;;
22439;SDS011;11387;51.612;7.210;2023-01-25T05:44:47;38.22;;;25.75;;
22439;SDS011;11387;51.612;7.210;2023-01-25T05:47:16;39.47;;;25.83;;
22439;SDS011;11387;51.612;7.210;2023-01-25T05:49:45;40.70;;;24.02;;
22439;SDS011;11387;51.612;7.210;2023-01-25T05:52:14;42.92;;;25.55;;
22439;SDS011;11387;51.612;7.210;2023-01-25T05:54:54;37.63;;;25.58;;
22439;SDS011;11387;51.612;7.210;2023-01-25T05:57:28;41.90;;;26.83;;
22439;SDS011;11387;51.612;7.210;2023-01-25T06:00:00;38.30;;;25.15;;
22439;SDS011;11387;51.612;7.210;2023-01-25T06:02:34;41.28;;;25.95;;
22439;SDS011;11387;51.612;7.210;2023-01-25T06:05:07;39.97;;;25.50;;
22439;SDS011;11387;51.612;7.210;2023-01-25T06:07:38;39.50;;;26.38;;
22439;SDS011;11387;51.612;7.210;2023-01-25T06:10:08;44.03;;;27.17;;
22439;SDS011;11387;51.612;7.210;2023-01-25T06:12:39;44.97;;;27.52;;
22439;SDS011;11387;51.612;7.210;2023-01-25T06:15:10;47.17;;;26.27;;
22439;SDS011;11387;51.612;7.210;2023-01-25T06:17:40;45.75;;;27.92;;
22439;SDS011;11387;51.612;7.210;2023-01-25T06:20:09;42.55;;;26.75;;
22439;SDS011;11387;51.612;7.210;2023-01-25T06:22:38;39.17;;;24.48;;
22439;SDS011;11387;51.612;7.210;2023-01-25T06:25:08;40.50;;;26.83;;
22439;SDS011;11387;51.612;7.210;2023-01-25T06:27:37;49.08;;;27.80;;
22439;SDS011;11387;51.612;7.210;2023-01-25T06:30:11;40.40;;;25.52;;
22439;SDS011;11387;51.612;7.210;2023-01-25T06:32:41;45.53;;;26.40;;
22439;SDS011;11387;51.612;7.210;2023-01-25T06:35:10;46.90;;;29.38;;
22439;SDS011;11387;51.612;7.210;2023-01-25T06:37:39;41.95;;;25.25;;
22439;SDS011;11387;51.612;7.210;2023-01-25T06:40:11;36.55;;;24.98;;
22439;SDS011;11387;51.612;7.210;2023-01-25T06:42:40;46.30;;;27.60;;
22439;SDS011;11387;51.612;7.210;2023-01-25T06:45:09;42.72;;;27.75;;
22439;SDS011;11387;51.612;7.210;2023-01-25T06:47:39;42.25;;;26.45;;
22439;SDS011;11387;51.612;7.210;2023-01-25T06:50:08;50.10;;;28.48;;
22439;SDS011;11387;51.612;7.210;2023-01-25T06:52:37;43.08;;;27.10;;
22439;SDS011;11387;51.612;7.210;2023-01-25T06:55:06;44.65;;;26.48;;
22439;SDS011;11387;51.612;7.210;2023-01-25T06:57:39;48.38;;;29.55;;
22439;SDS011;11387;51.612;7.210;2023-01-25T07:00:09;45.42;;;25.95;;
22439;SDS011;11387;51.612;7.210;2023-01-25T07:02:40;48.03;;;27.45;;
22439;SDS011;11387;51.612;7.210;2023-01-25T07:05:09;46.10;;;27.67;;
22439;SDS011;11387;51.612;7.210;2023-01-25T07:07:39;46.15;;;27.83;;
22439;SDS011;11387;51.612;7.210;2023-01-25T07:10:11;40.95;;;25.80;;
22439;SDS011;11387;51.612;7.210;2023-01-25T07:12:40;42.28;;;25.90;;
22439;SDS011;11387;51.612;7.210;2023-01-25T07:15:09;44.05;;;26.83;;
22439;SDS011;11387;51.612;7.210;2023-01-25T07:17:39;39.75;;;25.10;;
22439;SDS011;11387;51.612;7.210;2023-01-25T07:20:08;42.40;;;26.17;;
22439;SDS011;11387;51.612;7.210;2023-01-25T07:22:37;43.60;;;26.23;;
22439;SDS011;11387;51.612;7.210;2023-01-25T07:25:06;44.47;;;26.05;;
22439;SDS011;11387;51.612;7.210;2023-01-25T07:27:36;46.65;;;26.77;;
22439;SDS011;11387;51.612;7.210;2023-01-25T07:30:05;48.03;;;28.38;;
22439;SDS011;11387;51.612;7.210;2023-01-25T07:32:35;43.22;;;26.45;;
22439;SDS011;11387;51.612;7.210;2023-01-25T07:35:04;47.05;;;26.73;;
22439;SDS011;11387;51.612;7.210;2023-01-25T07:37:34;45.63;;;27.27;;
22439;SDS011;11387;51.612;7.210;2023-01-25T07:40:03;48.72;;;28.45;;
22439;SDS011;11387;51.612;7.210;2023-01-25T07:42:32;54.90;;;30.30;;
22439;SDS011;11387;51.612;7.210;2023-01-25T07:45:01;46.92;;;28.52;;
22439;SDS011;11387;51.612;7.210;2023-01-25T07:47:29;50.50;;;29.73;;
22439;SDS011;11387;51.612;7.210;2023-01-25T07:49:59;48.28;;;28.15;;
22439;SDS011;11387;51.612;7.210;2023-01-25T07:52:28;50.53;;;28.38;;
22439;SDS011;11387;51.612;7.210;2023-01-25T07:54:57;54.25;;;31.55;;
22439;SDS011;11387;51.612;7.210;2023-01-25T07:57:26;51.22;;;30.40;;
22439;SDS011;11387;51.612;7.210;2023-01-25T07:59:55;53.97;;;29.92;;
22439;SDS011;11387;51.612;7.210;2023-01-25T08:02:24;54.17;;;29.30;;
22439;SDS011;11387;51.612;7.210;2023-01-25T08:04:53;53.58;;;30.02;;
22439;SDS011;11387;51.612;7.210;2023-01-25T08:07:23;55.67;;;31.23;;
22439;SDS011;11387;51.612;7.210;2023-01-25T08:09:52;56.58;;;30.75;;
22439;SDS011;11387;51.612;7.210;2023-01-25T08:12:21;55.08;;;32.80;;
22439;SDS011;11387;51.612;7.210;2023-01-25T08:14:49;54.47;;;30.92;;
22439;SDS011;11387;51.612;7.210;2023-01-25T08:17:18;53.58;;;30.50;;
22439;SDS011;11387;51.612;7.210;2023-01-25T08:19:47;49.22;;;28.25;;
22439;SDS011;11387;51.612;7.210;2023-01-25T08:22:16;59.05;;;32.08;;
22439;SDS011;11387;51.612;7.210;2023-01-25T08:24:46;56.83;;;32.13;;
22439;SDS011;11387;51.612;7.210;2023-01-25T08:27:16;54.67;;;32.28;;
22439;SDS011;11387;51.612;7.210;2023-01-25T08:29:46;54.55;;;30.98;;
22439;SDS011;11387;51.612;7.210;2023-01-25T08:32:16;56.72;;;33.83;;
22439;SDS011;11387;51.612;7.210;2023-01-25T08:34:45;56.13;;;32.30;;
22439;SDS011;11387;51.612;7.210;2023-01-25T08:37:13;56.92;;;31.83;;
22439;SDS011;11387;51.612;7.210;2023-01-25T08:39:43;56.53;;;32.88;;
22439;SDS011;11387;51.612;7.210;2023-01-25T08:42:16;53.65;;;32.28;;
22439;SDS011;11387;51.612;7.210;2023-01-25T08:44:45;56.28;;;33.67;;
22439;SDS011;11387;51.612;7.210;2023-01-25T08:47:22;58.58;;;34.17;;
22439;SDS011;11387;51.612;7.210;2023-01-25T08:49:53;54.03;;;29.75;;
22439;SDS011;11387;51.612;7.210;2023-01-25T08:52:21;53.40;;;30.50;;
22439;SDS011;11387;51.612;7.210;2023-01-25T08:54:53;57.25;;;32.50;;
22439;SDS011;11387;51.612;7.210;2023-01-25T08:57:33;57.15;;;32.65;;
22439;SDS011;11387;51.612;7.210;2023-01-25T09:00:04;65.38;;;36.10;;
22439;SDS011;11387;51.612;7.210;2023-01-25T09:02:37;70.90;;;36.38;;
22439;SDS011;11387;51.612;7.210;2023-01-25T09:05:07;61.35;;;35.92;;
22439;SDS011;11387;51.612;7.210;2023-01-25T09:07:36;61.90;;;36.10;;
22439;SDS011;11387;51.612;7.210;2023-01-25T09:10:06;59.63;;;33.88;;
22439;SDS011;11387;51.612;7.210;2023-01-25T09:12:38;62.28;;;34.58;;
22439;SDS011;11387;51.612;7.210;2023-01-25T09:15:07;53.50;;;30.98;;
22439;SDS011;11387;51.612;7.210;2023-01-25T09:17:36;63.95;;;33.25;;
22439;SDS011;11387;51.612;7.210;2023-01-25T09:20:06;62.92;;;33.70;;
22439;SDS011;11387;51.612;7.210;2023-01-25T09:22:37;59.00;;;32.50;;
22439;SDS011;11387;51.612;7.210;2023-01-25T09:25:07;60.92;;;33.25;;
22439;SDS011;11387;51.612;7.210;2023-01-25T09:27:37;62.42;;;32.17;;
22439;SDS011;11387;51.612;7.210;2023-01-25T09:30:06;59.85;;;33.45;;
22439;SDS011;11387;51.612;7.210;2023-01-25T09:35:15;57.58;;;31.70;;
22439;SDS011;11387;51.612;7.210;2023-01-25T09:37:44;62.63;;;34.47;;
22439;SDS011;11387;51.612;7.210;2023-01-25T09:40:18;57.25;;;32.42;;
22439;SDS011;11387;51.612;7.210;2023-01-25T09:42:53;59.40;;;32.85;;
22439;SDS011;11387;51.612;7.210;2023-01-25T09:45:29;60.30;;;34.70;;
22439;SDS011;11387;51.612;7.210;2023-01-25T09:48:02;64.80;;;34.53;;
22439;SDS011;11387;51.612;7.210;2023-01-25T09:50:43;53.85;;;32.88;;
22439;SDS011;11387;51.612;7.210;2023-01-25T09:53:32;57.08;;;33.60;;
22439;SDS011;11387;51.612;7.210;2023-01-25T09:56:03;58.05;;;32.60;;
22439;SDS011;11387;51.612;7.210;2023-01-25T09:58:41;63.35;;;36.20;;
22439;SDS011;11387;51.612;7.210;2023-01-25T10:01:15;57.92;;;32.63;;
22439;SDS011;11387;51.612;7.210;2023-01-25T10:04:15;56.97;;;32.88;;
22439;SDS011;11387;51.612;7.210;2023-01-25T10:06:48;65.03;;;34.50;;
22439;SDS011;11387;51.612;7.210;2023-01-25T10:09:32;59.17;;;34.25;;
22439;SDS011;11387;51.612;7.210;2023-01-25T10:12:11;58.60;;;33.25;;
22439;SDS011;11387;51.612;7.210;2023-01-25T10:14:44;59.03;;;32.90;;
22439;SDS011;11387;51.612;7.210;2023-01-25T10:17:16;57.17;;;32.65;;
22439;SDS011;11387;51.612;7.210;2023-01-25T10:19:59;65.47;;;34.20;;
22439;SDS011;11387;51.612;7.210;2023-01-25T10:22:43;62.30;;;35.03;;
22439;SDS011;11387;51.612;7.210;2023-01-25T10:25:21;64.28;;;35.33;;
22439;SDS011;11387;51.612;7.210;2023-01-25T10:28:02;67.45;;;35.13;;
22439;SDS011;11387;51.612;7.210;2023-01-25T10:30:47;66.45;;;37.47;;
22439;SDS011;11387;51.612;7.210;2023-01-25T10:33:28;64.53;;;35.38;;
22439;SDS011;11387;51.612;7.210;2023-01-25T10:36:03;68.32;;;37.78;;
22439;SDS011;11387;51.612;7.210;2023-01-25T10:38:37;63.22;;;34.45;;
22439;SDS011;11387;51.612;7.210;2023-01-25T10:41:09;64.35;;;36.33;;
22439;SDS011;11387;51.612;7.210;2023-01-25T10:43:42;61.13;;;33.92;;
22439;SDS011;11387;51.612;7.210;2023-01-25T10:46:20;69.68;;;38.80;;
22439;SDS011;11387;51.612;7.210;2023-01-25T10:48:52;71.93;;;37.55;;
22439;SDS011;11387;51.612;7.210;2023-01-25T10:51:27;67.55;;;37.15;;
22439;SDS011;11387;51.612;7.210;2023-01-25T10:53:58;68.18;;;37.35;;
22439;SDS011;11387;51.612;7.210;2023-01-25T10:56:31;68.30;;;38.28;;
22439;SDS011;11387;51.612;7.210;2023-01-25T10:59:05;74.78;;;38.20;;
22439;SDS011;11387;51.612;7.210;2023-01-25T11:01:45;64.22;;;36.78;;
22439;SDS011;11387;51.612;7.210;2023-01-25T11:04:26;67.47;;;37.17;;
22439;SDS011;11387;51.612;7.210;2023-01-25T11:06:59;61.50;;;35.88;;
22439;SDS011;11387;51.612;7.210;2023-01-25T11:09:30;63.45;;;36.00;;
22439;SDS011;11387;51.612;7.210;2023-01-25T11:12:02;73.03;;;39.22;;
22439;SDS011;11387;51.612;7.210;2023-01-25T11:14:33;68.85;;;37.00;;
22439;SDS011;11387;51.612;7.210;2023-01-25T11:17:18;62.35;;;34.90;;
22439;SDS011;11387;51.612;7.210;2023-01-25T11:20:09;64.78;;;37.05;;
22439;SDS011;11387;51.612;7.210;2023-01-25T11:22:48;57.38;;;34.50;;
22439;SDS011;11387;51.612;7.210;2023-01-25T11:25:26;58.63;;;34.13;;
22439;SDS011;11387;51.612;7.210;2023-01-25T11:28:15;65.70;;;36.80;;
22439;SDS011;11387;51.612;7.210;2023-01-25T11:30:49;61.97;;;35.42;;
22439;SDS011;11387;51.612;7.210;2023-01-25T11:33:25;63.17;;;36.08;;
22439;SDS011;11387;51.612;7.210;2023-01-25T11:36:12;65.47;;;37.13;;
22439;SDS011;11387;51.612;7.210;2023-01-25T11:38:55;68.15;;;37.50;;
22439;SDS011;11387;51.612;7.210;2023-01-25T11:41:35;62.30;;;35.10;;
22439;SDS011;11387;51.612;7.210;2023-01-25T11:44:18;66.15;;;36.80;;
22439;SDS011;11387;51.612;7.210;2023-01-25T11:47:11;66.70;;;37.88;;
22439;SDS011;11387;51.612;7.210;2023-01-25T11:49:55;67.85;;;39.30;;
22439;SDS011;11387;51.612;7.210;2023-01-25T11:52:35;70.10;;;38.83;;
22439;SDS011;11387;51.612;7.210;2023-01-25T11:55:20;67.63;;;38.88;;
22439;SDS011;11387;51.612;7.210;2023-01-25T11:58:01;73.45;;;38.05;;
22439;SDS011;11387;51.612;7.210;2023-01-25T12:01:54;73.18;;;39.80;;
22439;SDS011;11387;51.612;7.210;2023-01-25T12:04:51;72.45;;;40.13;;
22439;SDS011;11387;51.612;7.210;2023-01-25T12:07:44;71.13;;;39.05;;
22439;SDS011;11387;51.612;7.210;2023-01-25T12:10:22;68.03;;;39.13;;
22439;SDS011;11387;51.612;7.210;2023-01-25T12:13:01;71.05;;;40.28;;
22439;SDS011;11387;51.612;7.210;2023-01-25T12:15:45;66.38;;;39.00;;
22439;SDS011;11387;51.612;7.210;2023-01-25T12:18:37;74.55;;;38.45;;
22439;SDS011;11387;51.612;7.210;2023-01-25T12:21:21;70.13;;;38.38;;
22439;SDS011;11387;51.612;7.210;2023-01-25T12:24:03;66.65;;;38.05;;
22439;SDS011;11387;51.612;7.210;2023-01-25T12:26:44;69.22;;;38.03;;
22439;SDS011;11387;51.612;7.210;2023-01-25T12:29:25;73.40;;;39.80;;
22439;SDS011;11387;51.612;7.210;2023-01-25T12:32:15;72.27;;;39.93;;
22439;SDS011;11387;51.612;7.210;2023-01-25T12:35:02;72.95;;;39.35;;
22439;SDS011;11387;51.612;7.210;2023-01-25T12:37:59;70.00;;;36.60;;
22439;SDS011;11387;51.612;7.210;2023-01-25T12:40:40;73.97;;;37.42;;
22439;SDS011;11387;51.612;7.210;2023-01-25T12:43:26;74.13;;;38.65;;
22439;SDS011;11387;51.612;7.210;2023-01-25T12:46:08;69.68;;;38.65;;
22439;SDS011;11387;51.612;7.210;2023-01-25T12:48:47;69.57;;;37.15;;
22439;SDS011;11387;51.612;7.210;2023-01-25T12:51:26;76.60;;;37.45;;
22439;SDS011;11387;51.612;7.210;2023-01-25T12:54:12;69.20;;;37.78;;
22439;SDS011;11387;51.612;7.210;2023-01-25T12:56:47;67.65;;;37.58;;
22439;SDS011;11387;51.612;7.210;2023-01-25T13:02:11;64.55;;;36.35;;
22439;SDS011;11387;51.612;7.210;2023-01-25T13:05:25;72.10;;;38.17;;
22439;SDS011;11387;51.612;7.210;2023-01-25T13:10:57;68.72;;;36.80;;
22439;SDS011;11387;51.612;7.210;2023-01-25T13:13:34;70.53;;;37.13;;
22439;SDS011;11387;51.612;7.210;2023-01-25T13:19:01;59.20;;;33.08;;
22439;SDS011;11387;51.612;7.210;2023-01-25T13:21:37;63.03;;;33.40;;
22439;SDS011;11387;51.612;7.210;2023-01-25T13:24:16;68.18;;;35.65;;
22439;SDS011;11387;51.612;7.210;2023-01-25T13:27:00;65.50;;;34.90;;
22439;SDS011;11387;51.612;7.210;2023-01-25T13:35:37;71.10;;;37.42;;
22439;SDS011;11387;51.612;7.210;2023-01-25T13:41:08;68.97;;;37.72;;
22439;SDS011;11387;51.612;7.210;2023-01-25T13:43:48;63.38;;;35.47;;
22439;SDS011;11387;51.612;7.210;2023-01-25T13:46:36;70.97;;;36.08;;
22439;SDS011;11387;51.612;7.210;2023-01-25T13:49:05;71.82;;;38.60;;
22439;SDS011;11387;51.612;7.210;2023-01-25T13:51:48;72.38;;;39.70;;
22439;SDS011;11387;51.612;7.210;2023-01-25T13:54:17;83.22;;;43.35;;
22439;SDS011;11387;51.612;7.210;2023-01-25T13:56:46;80.50;;;42.10;;
22439;SDS011;11387;51.612;7.210;2023-01-25T13:59:26;74.32;;;39.63;;
22439;SDS011;11387;51.612;7.210;2023-01-25T14:01:55;81.47;;;40.38;;
22439;SDS011;11387;51.612;7.210;2023-01-25T14:04:26;80.88;;;41.03;;
22439;SDS011;11387;51.612;7.210;2023-01-25T14:06:57;90.97;;;43.28;;
22439;SDS011;11387;51.612;7.210;2023-01-25T14:09:27;84.43;;;41.10;;
22439;SDS011;11387;51.612;7.210;2023-01-25T14:11:58;81.03;;;42.33;;
22439;SDS011;11387;51.612;7.210;2023-01-25T14:14:31;74.50;;;39.35;;
22439;SDS011;11387;51.612;7.210;2023-01-25T14:17:01;90.47;;;43.20;;
22439;SDS011;11387;51.612;7.210;2023-01-25T14:19:34;86.90;;;45.08;;
22439;SDS011;11387;51.612;7.210;2023-01-25T14:22:11;96.50;;;43.05;;
22439;SDS011;11387;51.612;7.210;2023-01-25T14:25:03;93.93;;;45.42;;
22439;SDS011;11387;51.612;7.210;2023-01-25T14:27:40;91.40;;;44.60;;
22439;SDS011;11387;51.612;7.210;2023-01-25T14:30:16;92.90;;;44.28;;
22439;SDS011;11387;51.612;7.210;2023-01-25T14:32:48;90.80;;;45.55;;
22439;SDS011;11387;51.612;7.210;2023-01-25T14:35:34;95.80;;;47.60;;
22439;SDS011;11387;51.612;7.210;2023-01-25T14:38:26;89.45;;;44.65;;
22439;SDS011;11387;51.612;7.210;2023-01-25T14:40:59;92.85;;;45.58;;
22439;SDS011;11387;51.612;7.210;2023-01-25T14:43:32;93.35;;;47.30;;
22439;SDS011;11387;51.612;7.210;2023-01-25T14:46:21;83.88;;;43.47;;
22439;SDS011;11387;51.612;7.210;2023-01-25T14:49:08;82.70;;;44.38;;
22439;SDS011;11387;51.612;7.210;2023-01-25T14:51:44;78.05;;;40.30;;
22439;SDS011;11387;51.612;7.210;2023-01-25T14:54:16;83.47;;;41.28;;
22439;SDS011;11387;51.612;7.210;2023-01-25T14:56:47;78.13;;;40.33;;
22439;SDS011;11387;51.612;7.210;2023-01-25T14:59:21;78.55;;;41.38;;
22439;SDS011;11387;51.612;7.210;2023-01-25T15:01:55;90.70;;;44.00;;
22439;SDS011;11387;51.612;7.210;2023-01-25T15:04:28;81.55;;;41.53;;
22439;SDS011;11387;51.612;7.210;2023-01-25T15:07:01;93.72;;;46.60;;
22439;SDS011;11387;51.612;7.210;2023-01-25T15:09:58;89.50;;;46.00;;
22439;SDS011;11387;51.612;7.210;2023-01-25T15:12:29;88.85;;;44.45;;
22439;SDS011;11387;51.612;7.210;2023-01-25T15:14:59;98.10;;;46.40;;
22439;SDS011;11387;51.612;7.210;2023-01-25T15:17:40;100.30;;;47.00;;
22439;SDS011;11387;51.612;7.210;2023-01-25T15:23:16;90.32;;;44.35;;
22439;SDS011;11387;51.612;7.210;2023-01-25T15:25:50;88.32;;;45.25;;